createdAt,value
2023-01-26T00:01:12.480Z,2.40
2023-01-26T00:03:39.473Z,2.30
2023-01-26T00:06:11.508Z,2.20
2023-01-26T00:08:42.355Z,2.30
2023-01-26T00:11:12.902Z,2.40
2023-01-26T00:13:41.901Z,2.40
2023-01-26T00:16:09.962Z,2.40
2023-01-26T00:18:40.013Z,2.40
2023-01-26T00:21:11.597Z,2.30
2023-01-26T00:23:38.260Z,2.30
2023-01-26T00:26:08.949Z,2.30
2023-01-26T00:28:37.902Z,2.30
2023-01-26T00:31:10.351Z,2.30
2023-01-26T00:33:36.932Z,2.30
2023-01-26T00:36:03.659Z,2.20
2023-01-26T00:38:30.263Z,2.30
2023-01-26T00:40:57.063Z,2.30
2023-01-26T00:43:23.725Z,2.40
2023-01-26T00:45:50.297Z,2.30
2023-01-26T00:48:16.967Z,2.30
2023-01-26T00:50:45.818Z,2.30
2023-01-26T00:53:14.919Z,2.20
2023-01-26T00:55:41.520Z,2.10
2023-01-26T00:58:08.558Z,2.10
2023-01-26T01:00:36.035Z,2.20
2023-01-26T01:03:03.036Z,2.10
2023-01-26T01:05:30.922Z,2.10
2023-01-26T01:07:57.807Z,2.10
2023-01-26T01:10:24.427Z,2.10
2023-01-26T01:12:50.993Z,2.10
2023-01-26T01:15:17.737Z,2.00
2023-01-26T01:17:44.339Z,2.00
2023-01-26T01:20:13.608Z,2.00
2023-01-26T01:22:40.309Z,2.00
2023-01-26T01:25:07.012Z,2.00
2023-01-26T01:27:33.711Z,2.10
2023-01-26T01:30:00.420Z,2.10
2023-01-26T01:32:29.453Z,2.00
2023-01-26T01:34:56.118Z,2.10
2023-01-26T01:37:22.765Z,2.20
2023-01-26T01:39:49.331Z,2.10
2023-01-26T01:42:16.031Z,2.10
2023-01-26T01:44:43.095Z,2.10
2023-01-26T01:47:13.228Z,2.00
2023-01-26T01:49:45.091Z,2.00
2023-01-26T01:52:17.569Z,2.10
2023-01-26T01:54:56.321Z,2.10
2023-01-26T01:57:29.203Z,2.10
2023-01-26T02:00:01.158Z,2.00
2023-01-26T02:02:28.063Z,2.10
2023-01-26T02:04:57.636Z,2.10
2023-01-26T02:07:24.258Z,2.20
2023-01-26T02:10:10.105Z,2.20
2023-01-26T02:12:37.069Z,2.10
2023-01-26T02:15:03.912Z,2.10
2023-01-26T02:17:30.533Z,2.10
2023-01-26T02:20:05.591Z,2.10
2023-01-26T02:22:47.260Z,2.10
2023-01-26T02:25:29.956Z,2.00
2023-01-26T02:27:56.568Z,2.00
2023-01-26T02:30:23.945Z,2.00
2023-01-26T02:32:50.641Z,2.00
2023-01-26T02:35:17.275Z,2.00
2023-01-26T02:37:43.913Z,2.00
2023-01-26T02:40:48.472Z,2.00
2023-01-26T02:43:15.228Z,2.00
2023-01-26T02:45:42.439Z,1.90
2023-01-26T02:48:09.069Z,1.90
2023-01-26T02:50:36.025Z,1.80
2023-01-26T02:53:02.831Z,1.80
2023-01-26T02:55:29.830Z,1.70
2023-01-26T02:58:00.811Z,1.70
2023-01-26T03:00:45.554Z,1.70
2023-01-26T03:03:13.796Z,1.70
2023-01-26T03:05:42.963Z,1.70
2023-01-26T03:08:11.974Z,1.70
2023-01-26T03:10:38.901Z,1.70
2023-01-26T03:13:05.582Z,1.70
2023-01-26T03:15:42.738Z,1.70
2023-01-26T03:18:29.103Z,1.60
2023-01-26T03:21:14.235Z,1.60
2023-01-26T03:23:59.589Z,1.60
2023-01-26T03:26:44.887Z,1.60
2023-01-26T03:29:11.486Z,1.70
2023-01-26T03:31:38.092Z,1.70
2023-01-26T03:34:04.697Z,1.80
2023-01-26T03:36:31.292Z,1.80
2023-01-26T03:38:57.850Z,1.80
2023-01-26T03:41:43.042Z,1.90
2023-01-26T03:44:28.105Z,1.90
2023-01-26T03:47:13.198Z,1.90
2023-01-26T03:49:58.238Z,2.00
2023-01-26T03:52:43.305Z,2.00
2023-01-26T03:55:28.502Z,1.90
2023-01-26T03:57:55.159Z,1.80
2023-01-26T04:00:21.829Z,1.80
2023-01-26T04:03:07.036Z,1.90
2023-01-26T04:05:52.014Z,1.80
2023-01-26T04:08:24.660Z,1.70
2023-01-26T04:10:53.953Z,1.70
2023-01-26T04:13:42.723Z,1.70
2023-01-26T04:16:29.041Z,1.70
2023-01-26T04:19:14.438Z,1.70
2023-01-26T04:21:43.212Z,1.70
2023-01-26T04:24:16.790Z,1.70
2023-01-26T04:26:44.247Z,1.70
2023-01-26T04:29:11.785Z,1.70
2023-01-26T04:31:39.169Z,1.70
2023-01-26T04:34:09.203Z,1.70
2023-01-26T04:36:35.853Z,1.70
2023-01-26T04:39:02.523Z,1.90
2023-01-26T04:41:29.831Z,1.80
2023-01-26T04:43:56.434Z,1.80
2023-01-26T04:46:25.527Z,1.70
2023-01-26T04:48:54.560Z,1.70
2023-01-26T04:51:24.128Z,1.80
2023-01-26T04:53:51.130Z,1.80
2023-01-26T04:56:24.803Z,1.80
2023-01-26T04:58:51.632Z,1.70
2023-01-26T05:01:18.379Z,1.70
2023-01-26T05:03:47.730Z,1.70
2023-01-26T05:06:14.676Z,1.90
2023-01-26T05:08:41.653Z,1.90
2023-01-26T05:11:08.614Z,1.80
2023-01-26T05:13:38.008Z,1.70
2023-01-26T05:16:05.496Z,1.60
2023-01-26T05:18:32.144Z,1.70
2023-01-26T05:20:58.940Z,1.60
2023-01-26T05:23:25.853Z,1.60
2023-01-26T05:25:52.581Z,1.60
2023-01-26T05:28:19.204Z,1.70
2023-01-26T05:30:49.078Z,1.70
2023-01-26T05:33:16.322Z,1.80
2023-01-26T05:35:42.966Z,1.80
2023-01-26T05:38:12.115Z,1.80
2023-01-26T05:40:41.223Z,1.80
2023-01-26T05:43:08.446Z,1.80
2023-01-26T05:45:35.386Z,1.80
2023-01-26T05:48:02.154Z,1.80
2023-01-26T05:50:28.772Z,1.80
2023-01-26T05:52:55.644Z,1.80
2023-01-26T05:55:22.436Z,1.80
2023-01-26T05:57:54.162Z,1.80
2023-01-26T06:00:21.067Z,1.80
2023-01-26T06:02:52.494Z,1.80
2023-01-26T06:05:22.605Z,1.80
2023-01-26T06:07:51.558Z,1.90
2023-01-26T06:10:18.172Z,1.90
2023-01-26T06:12:44.811Z,1.80
2023-01-26T06:15:12.633Z,1.80
2023-01-26T06:17:39.856Z,1.90
2023-01-26T06:20:07.027Z,1.80
2023-01-26T06:22:33.701Z,1.90
2023-01-26T06:25:02.510Z,1.90
2023-01-26T06:27:31.533Z,1.90
2023-01-26T06:30:00.648Z,1.90
2023-01-26T06:32:28.064Z,1.80
2023-01-26T06:34:56.809Z,1.80
2023-01-26T06:37:25.831Z,1.90
2023-01-26T06:39:52.482Z,1.80
2023-01-26T06:42:19.175Z,1.90
2023-01-26T06:44:45.888Z,1.90
2023-01-26T06:47:13.199Z,1.90
2023-01-26T06:49:39.893Z,1.90
2023-01-26T06:52:21.519Z,1.90
2023-01-26T06:54:49.331Z,1.90
2023-01-26T06:57:15.897Z,1.90
2023-01-26T06:59:42.466Z,2.00
2023-01-26T07:02:15.628Z,1.90
2023-01-26T07:04:44.409Z,1.90
2023-01-26T07:07:11.020Z,1.90
2023-01-26T07:09:40.155Z,1.90
2023-01-26T07:12:07.345Z,1.90
2023-01-26T07:14:36.443Z,1.90
2023-01-26T07:17:03.327Z,1.90
2023-01-26T07:19:31.407Z,2.00
2023-01-26T07:21:58.170Z,1.90
2023-01-26T07:24:29.728Z,2.00
2023-01-26T07:26:56.688Z,2.10
2023-01-26T07:29:23.361Z,2.20
2023-01-26T07:31:50.137Z,2.10
2023-01-26T07:34:16.854Z,2.10
2023-01-26T07:36:43.550Z,2.30
2023-01-26T07:39:10.237Z,2.20
2023-01-26T07:41:36.899Z,2.10
2023-01-26T07:44:11.044Z,2.00
2023-01-26T07:46:41.492Z,2.10
2023-01-26T07:49:12.628Z,2.20
2023-01-26T07:51:42.718Z,2.30
2023-01-26T07:54:10.372Z,2.40
2023-01-26T07:56:37.406Z,2.40
2023-01-26T07:59:04.092Z,2.30
2023-01-26T08:01:30.767Z,2.30
2023-01-26T08:04:00.305Z,2.30
2023-01-26T08:06:26.957Z,2.30
2023-01-26T08:08:57.673Z,2.30
2023-01-26T08:11:25.794Z,2.20
2023-01-26T08:13:52.806Z,2.20
2023-01-26T08:16:21.894Z,2.10
2023-01-26T08:18:51.025Z,2.20
2023-01-26T08:21:18.552Z,2.30
2023-01-26T08:23:49.174Z,2.30
2023-01-26T08:26:19.963Z,2.30
2023-01-26T08:28:48.038Z,2.30
2023-01-26T08:31:20.318Z,2.30
2023-01-26T08:33:52.596Z,2.40
2023-01-26T08:36:22.739Z,2.30
2023-01-26T08:38:49.786Z,2.40
2023-01-26T08:41:16.436Z,2.40
2023-01-26T08:43:43.124Z,2.40
2023-01-26T08:46:09.815Z,2.40
2023-01-26T08:48:37.357Z,2.30
2023-01-26T08:51:07.024Z,2.40
2023-01-26T08:53:35.007Z,2.40
2023-01-26T08:56:02.351Z,2.40
2023-01-26T08:58:29.662Z,2.30
2023-01-26T09:00:56.374Z,2.20
2023-01-26T09:03:25.364Z,2.20
2023-01-26T09:05:54.440Z,2.20
2023-01-26T09:08:21.093Z,2.20
2023-01-26T09:10:50.248Z,2.30
2023-01-26T09:13:16.899Z,2.30
2023-01-26T09:15:43.539Z,2.40
2023-01-26T09:18:11.282Z,2.50
2023-01-26T09:20:38.208Z,2.60
2023-01-26T09:23:04.871Z,2.60
2023-01-26T09:25:31.565Z,2.60
2023-01-26T09:27:58.266Z,2.60
2023-01-26T09:30:25.005Z,2.60
2023-01-26T09:32:51.805Z,2.60
2023-01-26T09:35:20.547Z,2.60
2023-01-26T09:37:49.592Z,2.70
2023-01-26T09:40:18.217Z,2.60
2023-01-26T09:42:47.814Z,2.60
2023-01-26T09:45:14.588Z,2.50
2023-01-26T09:47:50.245Z,2.50
2023-01-26T09:50:19.374Z,2.60
2023-01-26T09:52:57.126Z,2.70
2023-01-26T09:55:24.826Z,2.70
2023-01-26T09:57:55.329Z,2.60
2023-01-26T10:00:25.883Z,2.60
2023-01-26T10:03:04.962Z,2.60
2023-01-26T10:05:43.807Z,2.70
2023-01-26T10:08:15.116Z,2.80
2023-01-26T10:10:46.606Z,2.80
2023-01-26T10:13:16.659Z,2.70
2023-01-26T10:15:45.067Z,2.70
2023-01-26T10:18:40.513Z,2.70
2023-01-26T10:21:09.618Z,2.70
2023-01-26T10:23:36.285Z,2.60
2023-01-26T10:26:14.059Z,2.60
2023-01-26T10:28:41.761Z,2.70
2023-01-26T10:31:14.284Z,2.60
2023-01-26T10:33:43.719Z,2.60
2023-01-26T10:36:12.488Z,2.50
2023-01-26T10:38:42.623Z,2.40
2023-01-26T10:41:18.341Z,2.50
2023-01-26T10:43:54.330Z,2.50
2023-01-26T10:46:28.834Z,2.50
2023-01-26T10:48:57.638Z,2.40
2023-01-26T10:51:26.238Z,2.30
2023-01-26T10:54:12.840Z,2.30
2023-01-26T10:56:46.983Z,2.30
2023-01-26T10:59:17.530Z,2.30
2023-01-26T11:01:57.895Z,2.30
2023-01-26T11:04:27.244Z,2.30
2023-01-26T11:06:54.926Z,2.20
2023-01-26T11:09:25.210Z,2.20
2023-01-26T11:11:56.206Z,2.30
2023-01-26T11:14:22.784Z,2.30
2023-01-26T11:17:09.849Z,2.20
2023-01-26T11:19:36.449Z,2.20
2023-01-26T11:22:05.849Z,2.20
2023-01-26T11:24:43.820Z,2.30
2023-01-26T11:27:29.915Z,2.30
2023-01-26T11:30:06.360Z,2.20
2023-01-26T11:32:44.948Z,2.30
2023-01-26T11:35:23.773Z,2.30
2023-01-26T11:37:55.820Z,2.20
2023-01-26T11:40:31.989Z,2.40
2023-01-26T11:43:08.656Z,2.40
2023-01-26T11:45:35.373Z,2.40
2023-01-26T11:48:20.438Z,2.30
2023-01-26T11:50:51.440Z,2.20
2023-01-26T11:53:18.004Z,2.10
2023-01-26T11:55:44.591Z,2.10
2023-01-26T11:58:40.734Z,2.10
2023-01-26T12:01:12.028Z,2.10
2023-01-26T12:03:44.231Z,2.20
2023-01-26T12:06:18.108Z,2.20
2023-01-26T12:08:44.715Z,2.30
2023-01-26T12:11:23.699Z,2.30
2023-01-26T12:14:08.678Z,2.30
2023-01-26T12:16:35.281Z,2.40
2023-01-26T12:19:25.807Z,2.40
2023-01-26T12:21:57.198Z,2.40
2023-01-26T12:25:16.135Z,2.40
2023-01-26T12:27:42.473Z,2.50
2023-01-26T12:30:24.424Z,2.60
2023-01-26T12:32:53.715Z,2.50
2023-01-26T12:35:30.299Z,2.70
2023-01-26T12:38:17.071Z,2.70
2023-01-26T12:40:51.367Z,2.70
2023-01-26T12:43:35.373Z,2.60
2023-01-26T12:46:02.786Z,2.60
2023-01-26T12:48:35.355Z,2.50
2023-01-26T12:51:06.204Z,2.50
2023-01-26T12:53:32.916Z,2.40
2023-01-26T12:56:05.408Z,2.30
2023-01-26T12:58:34.716Z,2.30
2023-01-26T13:01:05.302Z,2.30
2023-01-26T13:03:38.577Z,2.30
2023-01-26T13:06:10.953Z,2.20
2023-01-26T13:08:37.576Z,2.30
2023-01-26T13:11:06.728Z,2.20
2023-01-26T13:13:33.375Z,2.20
2023-01-26T13:16:15.387Z,2.20
2023-01-26T13:18:49.515Z,2.20
2023-01-26T13:21:34.826Z,2.20
2023-01-26T13:24:03.870Z,2.20
2023-01-26T13:26:33.653Z,2.20
2023-01-26T13:29:19.162Z,2.10
2023-01-26T13:31:45.923Z,2.00
2023-01-26T13:34:15.070Z,2.00
2023-01-26T13:36:43.522Z,2.00
2023-01-26T13:39:14.333Z,1.90
2023-01-26T13:41:44.747Z,2.00
2023-01-26T13:44:15.249Z,1.90
2023-01-26T13:47:01.995Z,1.80
2023-01-26T13:49:34.813Z,1.90
2023-01-26T13:52:02.112Z,1.90
2023-01-26T13:54:28.763Z,1.90
2023-01-26T13:57:01.236Z,1.90
2023-01-26T13:59:27.828Z,2.10
2023-01-26T14:01:58.071Z,2.00
2023-01-26T14:04:28.869Z,1.90
2023-01-26T14:07:03.552Z,1.90
2023-01-26T14:09:31.894Z,2.00
2023-01-26T14:12:00.473Z,2.10
2023-01-26T14:14:28.702Z,2.10
2023-01-26T14:16:57.346Z,2.00
2023-01-26T14:19:24.472Z,2.00
2023-01-26T14:21:51.225Z,2.10
2023-01-26T14:24:18.722Z,2.20
2023-01-26T14:26:48.613Z,2.10
2023-01-26T14:29:20.450Z,2.10
2023-01-26T14:31:48.139Z,2.10
2023-01-26T14:34:19.054Z,2.30
2023-01-26T14:36:45.681Z,2.30
2023-01-26T14:39:20.576Z,2.20
2023-01-26T14:41:48.906Z,2.10
2023-01-26T14:44:17.697Z,2.10
2023-01-26T14:46:44.508Z,2.10
2023-01-26T14:49:14.804Z,2.10
2023-01-26T14:51:44.006Z,2.10
2023-01-26T14:54:16.313Z,2.10
2023-01-26T14:56:46.002Z,2.10
2023-01-26T14:59:21.079Z,2.10
2023-01-26T15:01:47.829Z,2.00
2023-01-26T15:04:22.483Z,1.90
2023-01-26T15:06:49.186Z,1.80
2023-01-26T15:09:22.081Z,1.80
2023-01-26T15:12:15.502Z,1.80
2023-01-26T15:14:44.889Z,1.80
2023-01-26T15:17:50.437Z,2.00
2023-01-26T15:20:22.792Z,2.00
2023-01-26T15:22:50.555Z,2.00
2023-01-26T15:25:21.435Z,2.00
2023-01-26T15:27:57.460Z,2.00
2023-01-26T15:30:37.749Z,2.00
2023-01-26T15:33:24.406Z,1.90
2023-01-26T15:35:57.639Z,1.80
2023-01-26T15:38:24.247Z,1.70
2023-01-26T15:40:50.813Z,1.80
2023-01-26T15:43:20.897Z,1.80
2023-01-26T15:45:50.531Z,1.80
2023-01-26T15:48:17.394Z,1.70
2023-01-26T15:50:44.313Z,1.60
2023-01-26T15:53:14.705Z,1.60
2023-01-26T15:55:41.728Z,1.60
2023-01-26T15:58:10.839Z,1.60
2023-01-26T16:00:37.639Z,1.60
2023-01-26T16:03:07.544Z,1.60
2023-01-26T16:05:36.311Z,1.60
2023-01-26T16:08:03.017Z,1.50
2023-01-26T16:10:29.665Z,1.50
2023-01-26T16:12:56.436Z,1.50
2023-01-26T16:15:29.277Z,1.50
2023-01-26T16:17:55.988Z,1.50
2023-01-26T16:20:25.056Z,1.50
2023-01-26T16:22:51.640Z,1.60
2023-01-26T16:25:28.498Z,1.50
2023-01-26T16:27:55.503Z,1.50
2023-01-26T16:30:22.731Z,1.50
2023-01-26T16:32:50.029Z,1.50
2023-01-26T16:35:20.896Z,1.50
2023-01-26T16:37:47.771Z,1.50
2023-01-26T16:40:15.664Z,1.50
2023-01-26T16:42:44.767Z,1.50
2023-01-26T16:45:19.388Z,1.50
2023-01-26T16:47:51.247Z,1.50
2023-01-26T16:50:18.225Z,1.50
2023-01-26T16:52:47.637Z,1.50
2023-01-26T16:55:15.890Z,1.40
2023-01-26T16:57:45.525Z,1.40
2023-01-26T17:00:16.528Z,1.40
2023-01-26T17:02:44.222Z,1.40
2023-01-26T17:05:15.554Z,1.40
2023-01-26T17:07:42.400Z,1.50
2023-01-26T17:10:09.907Z,1.60
2023-01-26T17:12:36.793Z,1.60
2023-01-26T17:15:05.290Z,1.50
2023-01-26T17:17:32.108Z,1.50
2023-01-26T17:20:17.685Z,1.40
2023-01-26T17:22:45.481Z,1.40
2023-01-26T17:25:16.800Z,1.40
2023-01-26T17:27:44.507Z,1.50
2023-01-26T17:30:11.658Z,1.50
2023-01-26T17:32:38.233Z,1.40
2023-01-26T17:35:04.999Z,1.50
2023-01-26T17:37:33.863Z,1.50
2023-01-26T17:40:00.475Z,1.50
2023-01-26T17:42:28.766Z,1.60
2023-01-26T17:44:57.824Z,1.70
2023-01-26T17:47:24.600Z,1.70
2023-01-26T17:49:51.230Z,1.70
2023-01-26T17:52:18.386Z,1.70
2023-01-26T17:54:45.184Z,1.80
2023-01-26T17:57:12.081Z,1.80
2023-01-26T17:59:38.730Z,1.70
2023-01-26T18:02:05.440Z,1.70
2023-01-26T18:04:33.192Z,1.70
2023-01-26T18:07:01.787Z,1.80
2023-01-26T18:09:28.474Z,1.70
2023-01-26T18:11:55.076Z,1.70
2023-01-26T18:14:21.798Z,1.70
2023-01-26T18:16:48.669Z,1.70
2023-01-26T18:19:15.274Z,1.60
2023-01-26T18:21:44.173Z,1.60
2023-01-26T18:24:10.931Z,1.60
2023-01-26T18:26:38.404Z,1.60
2023-01-26T18:29:06.072Z,1.50
2023-01-26T18:31:34.264Z,1.50
2023-01-26T18:34:02.073Z,1.50
2023-01-26T18:36:29.050Z,1.60
2023-01-26T18:38:57.950Z,1.50
2023-01-26T18:41:25.443Z,1.50
2023-01-26T18:43:55.220Z,1.50
2023-01-26T18:46:22.435Z,1.50
2023-01-26T18:48:51.520Z,1.50
2023-01-26T18:51:19.208Z,1.50
2023-01-26T18:53:45.817Z,1.50
2023-01-26T18:56:13.686Z,1.50
2023-01-26T18:58:42.796Z,1.50
2023-01-26T19:01:13.845Z,1.40
2023-01-26T19:03:48.573Z,1.40
2023-01-26T19:06:19.811Z,1.30
2023-01-26T19:08:47.259Z,1.20
2023-01-26T19:11:16.088Z,1.20
2023-01-26T19:13:45.807Z,1.20
2023-01-26T19:16:12.509Z,1.40
2023-01-26T19:18:39.191Z,1.40
2023-01-26T19:21:08.381Z,1.40
2023-01-26T19:23:36.926Z,1.50
2023-01-26T19:26:09.125Z,1.40
2023-01-26T19:28:35.770Z,1.40
2023-01-26T19:31:03.488Z,1.30
2023-01-26T19:33:31.723Z,1.30
2023-01-26T19:36:00.562Z,1.30
2023-01-26T19:38:27.216Z,1.40
2023-01-26T19:40:53.923Z,1.40
2023-01-26T19:43:21.175Z,1.40
2023-01-26T19:45:53.015Z,1.40
2023-01-26T19:48:21.320Z,1.40
2023-01-26T19:51:08.235Z,1.50
2023-01-26T19:53:38.852Z,1.40
2023-01-26T19:56:06.440Z,1.30
2023-01-26T19:58:33.132Z,1.20
2023-01-26T20:01:09.835Z,1.30
2023-01-26T20:03:36.734Z,1.40
2023-01-26T20:06:04.314Z,1.50
2023-01-26T20:08:33.656Z,1.40
2023-01-26T20:11:04.084Z,1.40
2023-01-26T20:13:30.857Z,1.30
2023-01-26T20:15:58.201Z,1.30
2023-01-26T20:18:25.412Z,1.20
2023-01-26T20:20:52.516Z,1.20
2023-01-26T20:23:21.668Z,1.20
2023-01-26T20:25:51.527Z,1.20
2023-01-26T20:28:18.961Z,1.20
2023-01-26T20:30:45.889Z,1.30
2023-01-26T20:33:12.709Z,1.40
2023-01-26T20:35:40.093Z,1.40
2023-01-26T20:38:08.904Z,1.40
2023-01-26T20:40:35.657Z,1.40
2023-01-26T20:43:04.935Z,1.50
2023-01-26T20:45:31.736Z,1.50
2023-01-26T20:48:00.839Z,1.40
2023-01-26T20:50:27.479Z,1.50
2023-01-26T20:52:54.891Z,1.40
2023-01-26T20:55:21.738Z,1.50
2023-01-26T20:57:49.832Z,1.40
2023-01-26T21:00:16.645Z,1.40
2023-01-26T21:02:43.263Z,1.40
2023-01-26T21:05:10.029Z,1.40
2023-01-26T21:07:36.608Z,1.30
2023-01-26T21:10:03.383Z,1.30
2023-01-26T21:12:30.016Z,1.20
2023-01-26T21:14:56.643Z,1.10
2023-01-26T21:17:24.517Z,1.10
2023-01-26T21:19:51.208Z,1.10
2023-01-26T21:22:20.981Z,1.20
2023-01-26T21:24:47.602Z,1.20
2023-01-26T21:27:14.355Z,1.20
2023-01-26T21:29:40.929Z,1.20
2023-01-26T21:32:09.938Z,1.30
2023-01-26T21:34:36.572Z,1.20
2023-01-26T21:37:03.221Z,1.20
2023-01-26T21:39:29.946Z,1.20
2023-01-26T21:41:56.582Z,1.20
2023-01-26T21:44:24.171Z,1.30
2023-01-26T21:46:52.276Z,1.20
2023-01-26T21:49:19.161Z,1.20
2023-01-26T21:52:04.449Z,1.20
2023-01-26T21:54:31.767Z,1.30
2023-01-26T21:56:59.068Z,1.30
2023-01-26T21:59:29.027Z,1.30
2023-01-26T22:01:58.775Z,1.10
2023-01-26T22:04:29.429Z,1.10
2023-01-26T22:06:56.292Z,1.10
2023-01-26T22:09:23.985Z,1.00
2023-01-26T22:11:51.018Z,1.10
2023-01-26T22:14:19.566Z,1.10
2023-01-26T22:16:46.296Z,1.20
2023-01-26T22:19:13.292Z,1.10
2023-01-26T22:21:40.239Z,1.10
2023-01-26T22:24:08.759Z,1.10
2023-01-26T22:26:36.703Z,1.10
2023-01-26T22:29:03.988Z,1.00
2023-01-26T22:31:33.103Z,1.00
2023-01-26T22:34:00.810Z,1.00
2023-01-26T22:36:30.180Z,1.00
2023-01-26T22:38:58.981Z,1.10
2023-01-26T22:41:26.634Z,1.10
2023-01-26T22:43:55.281Z,1.00
2023-01-26T22:46:23.113Z,1.00
2023-01-26T22:48:50.485Z,1.00
2023-01-26T22:51:23.933Z,0.90
2023-01-26T22:53:53.704Z,1.00
2023-01-26T22:56:20.715Z,0.90
2023-01-26T22:58:57.962Z,0.90
2023-01-26T23:01:26.471Z,1.00
2023-01-26T23:03:54.163Z,0.90
2023-01-26T23:06:21.295Z,1.00
2023-01-26T23:08:50.206Z,1.00
2023-01-26T23:11:19.876Z,1.10
2023-01-26T23:13:47.981Z,1.20
2023-01-26T23:16:14.847Z,1.20
2023-01-26T23:18:41.958Z,1.10
2023-01-26T23:21:09.552Z,1.20
2023-01-26T23:23:36.327Z,1.20
2023-01-26T23:26:05.334Z,1.10
2023-01-26T23:28:36.231Z,1.00
2023-01-26T23:31:03.249Z,1.00
2023-01-26T23:33:32.120Z,1.00
2023-01-26T23:35:59.172Z,1.00
2023-01-26T23:38:27.068Z,1.00
2023-01-26T23:40:54.034Z,1.00
2023-01-26T23:43:20.719Z,1.00
2023-01-26T23:45:50.757Z,0.90
2023-01-26T23:48:19.691Z,0.90
2023-01-26T23:50:51.217Z,0.90
2023-01-26T23:53:17.776Z,0.90
2023-01-26T23:55:46.783Z,0.90
2023-01-26T23:58:13.399Z,0.90
